Nearby Airport METAR Reports

 

KVSF - Springfield, Vermont, USA
Distance from station: WSW 8mi, 12km
Updated: 10:54pm
Light rain, Overcast
Light rain, Overcast
 Wind from calm
Wind: Calm
Temperature: 54°F , 12°C
Dew Point: 54°F , 12°C
Humidity: 100%
Barometer: 29.86 inHg , 1011.2 hPa
Summary: Light rain
Clouds: Overcast
Visibility: 8 miles , 13 km
Cloud details: Mostly cloudy 900 ft
Overcast 2300 ft
2018/06/24 02:54 KVSF 240254Z AUTO 00000KT 8SM -RA BKN009 OVC023 12/12 A2986 RMK AO2 RAB22 SLP113 P0001 60001 T01220122 58001
KLEB - Lebanon, New Hampshire, USA
Distance from station: N 18mi, 29km
Updated: 11:00pm
Overcast
Overcast
 Wind from calm
Wind: Calm
Temperature: 55°F , 13°C
Dew Point: 52°F , 11°C
Humidity: 88%
Barometer: 29.85 inHg , 1010.8 hPa
Clouds: Overcast
Visibility: 10 miles , 16 km
Cloud details: Overcast 1100 ft
2018/06/24 03:00 KLEB 240300Z AUTO 00000KT 10SM OVC011 13/11 A2985 RMK AO2 T01330111
KRUT - Rutland State, Vermont, USA
Distance from station: WNW 31mi, 50km
Updated: 10:56pm
Overcast
Overcast
 Wind from SSE
Wind: SSE 6 mph , 9 km/h
Temperature: 55°F , 13°C
Dew Point: 52°F , 11°C
Humidity: 88%
Barometer: 29.84 inHg , 1010.5 hPa
Clouds: Overcast
Visibility: 10 miles , 16 km
Cloud details: Overcast 1600 ft
2018/06/24 02:56 KRUT 240256Z AUTO 16005KT 10SM OVC016 13/11 A2984 RMK AO2 SLP123 T01330111 53003 $
 
KEEN - Keene/Dillant, New Hampshire, USA
Distance from station: S 34mi, 55km
Updated: 10:56pm
Overcast
Overcast
 Wind from calm
Wind: Calm
Temperature: 55°F , 13°C
Dew Point: 54°F , 12°C
Humidity: 94%
Barometer: 29.87 inHg , 1011.5 hPa
Clouds: Overcast
Visibility: 10 miles , 16 km
Cloud details: Overcast 900 ft
2018/06/24 02:56 KEEN 240256Z AUTO 00000KT 10SM OVC009 13/12 A2987 RMK AO2 SLP132 T01280117 50002
K1P1 - Plymouth, New Hampshire, USA
Distance from station: NE 42mi, 67km
Updated: 11:15pm

 Wind from calm
Wind: Calm
Temperature: 54°F , 12°C
Dew Point: 54°F , 12°C
Humidity: 100%
Barometer: 29.86 inHg , 1011.2 hPa
2018/06/24 03:15 K1P1 240315Z AUTO 00000KT 12/12 A2986 RMK AO2 T01240116 PWINO
KAFN - Jaffrey, New Hampshire, USA
Distance from station: SSE 44mi, 70km
Updated: 11:17pm
Mist, Overcast
Mist, Overcast
 Wind from calm
Wind: Calm
Temperature: 54°F , 12°C
Dew Point: 54°F , 12°C
Humidity: 100%
Barometer: 29.86 inHg , 1011.2 hPa
Summary: Mist
Clouds: Overcast
Visibility: 2 1/2 miles , 4 km
Cloud details: Overcast 200 ft
2018/06/24 03:17 KAFN 240317Z AUTO 00000KT 2 1/2SM BR OVC002 12/12 A2986 RMK AO2 T01220122
 
KCON - Concord, New Hampshire, USA
Distance from station: ESE 45mi, 73km
Updated: 10:51pm
Light rain, Overcast
Light rain, Overcast
 Wind from NNW
Wind: NNW 3 mph , 6 km/h
Temperature: 55°F , 13°C
Dew Point: 52°F , 11°C
Humidity: 88%
Barometer: 29.86 inHg , 1011.2 hPa
Summary: Light rain
Clouds: Overcast
Visibility: 10 miles , 16 km
Cloud details: Overcast 2400 ft
2018/06/24 02:51 KCON 240251Z AUTO 34003KT 10SM -RA OVC024 13/11 A2986 RMK AO2 RAB38 SLP112 P0000 60000 T01280106 58003
KLCI - Laconia Muni, New Hampshire, USA
Distance from station: ENE 49mi, 80km
Updated: 10:56pm
Light rain, Overcast
Light rain, Overcast
 Wind from ESE
Wind: ESE 3 mph , 6 km/h
Temperature: 54°F , 12°C
Dew Point: 52°F , 11°C
Humidity: 94%
Barometer: 29.86 inHg , 1011.2 hPa
Summary: Light rain
Clouds: Overcast
Visibility: 10 miles , 16 km
Cloud details: Overcast 2500 ft
2018/06/24 02:56 KLCI 240256Z AUTO 12003KT 10SM -RA OVC025 12/11 A2986 RMK AO2 RAB55 SLP129 P0000 60000 T01220111 58004
KDDH - Bennington, Vermont, USA
Distance from station: SW 55mi, 89km
Updated: 10:54pm
Overcast
Overcast
 Wind from calm
Wind: Calm
Temperature: 59°F , 15°C
Dew Point: 55°F , 13°C
Humidity: 88%
Barometer: 29.84 inHg , 1010.5 hPa
Clouds: Overcast
Visibility: 10 miles , 16 km
Cloud details: Overcast 1200 ft
2018/06/24 02:54 KDDH 240254Z AUTO 00000KT 10SM OVC012 15/13 A2984 RMK AO2 RAE08 SLP102 P0000 60001 T01500128 50003
 
K6B0 - Middlebury, Vermont, USA
Distance from station: NW 56mi, 90km
Updated: 11:15pm
Overcast
Overcast
 Wind from SSE
Wind: SSE 6 mph , 9 km/h
Temperature: 55°F , 13°C
Dew Point: 54°F , 12°C
Humidity: 94%
Barometer: 29.83 inHg , 1010.2 hPa
Clouds: Overcast
Visibility: 10 miles , 16 km
Cloud details: Overcast 2200 ft
2018/06/24 03:15 K6B0 240315Z AUTO 16005KT 10SM OVC022 13/12 A2983 RMK AO2 T01330122
KMHT - Manchester, New Hampshire, USA
Distance from station: ESE 56mi, 90km
Updated: 10:53pm
Overcast
Overcast
 Wind from NNE
Wind: NNE 3 mph , 6 km/h
Temperature: 57°F , 14°C
Dew Point: 52°F , 11°C
Humidity: 82%
Barometer: 29.85 inHg , 1010.8 hPa
Clouds: Overcast
Visibility: 10 miles , 16 km
Cloud details: Overcast 2200 ft
2018/06/24 02:53 KMHT 240253Z 02003KT 10SM OVC022 14/11 A2985 RMK AO2 SLP119 60001 T01440111 58000
KORE - Orange, Massachusetts, USA
Distance from station: S 56mi, 90km
Updated: 10:52pm
Overcast
Overcast
 Wind from calm
Wind: Calm
Temperature: 55°F , 13°C
Dew Point: 55°F , 13°C
Humidity: 100%
Barometer: 29.87 inHg , 1011.5 hPa
Clouds: Overcast
Visibility: 10 miles , 16 km
Cloud details: Overcast 600 ft
2018/06/24 02:52 KORE 240252Z AUTO 00000KT 10SM OVC006 13/13 A2987 RMK AO2 SLP116 T01330133 50003
 
KMPV - Montpelier/Barre, Vermont, USA
Distance from station: N 58mi, 93km
Updated: 11:07pm
Overcast
Overcast
 Wind from S
Wind: S 6 mph , 9 km/h
Temperature: 54°F , 12°C
Dew Point: 54°F , 12°C
Humidity: 100%
Barometer: 29.88 inHg , 1011.9 hPa
Clouds: Overcast
Visibility: 10 miles , 16 km
Cloud details: Mostly cloudy 800 ft
Overcast 2100 ft
2018/06/24 03:07 KMPV 240307Z AUTO 18005KT 10SM BKN008 OVC021 12/12 A2988 RMK AO2 CIG 007V012 T01170117
KASH - Nashua/Boire Fld, New Hampshire, USA
Distance from station: SE 59mi, 95km
Updated: 10:56pm
Overcast
Overcast
 Wind from NNW
Wind: NNW 3 mph , 6 km/h
Temperature: 55°F , 13°C
Dew Point: 55°F , 13°C
Humidity: 100%
Barometer: 29.87 inHg , 1011.5 hPa
Clouds: Overcast
Visibility: 10 miles , 16 km
Cloud details: Overcast 1400 ft
2018/06/24 02:56 KASH 240256Z AUTO 34003KT 10SM OVC014 13/13 A2987 RMK AO2 SLP124 60000 T01330128 50001
KAQW - North Adams, Massachusetts, USA
Distance from station: SW 62mi, 99km
Updated: 10:52pm
Overcast
Overcast
 Wind from calm
Wind: Calm
Temperature: 57°F , 14°C
Dew Point: 54°F , 12°C
Humidity: 88%
Barometer: 29.86 inHg , 1011.2 hPa
Clouds: Overcast
Visibility: 10 miles , 16 km
Cloud details: Overcast 1300 ft
2018/06/24 02:52 KAQW 240252Z AUTO 00000KT 10SM OVC013 14/12 A2986 RMK AO2 SLP110 60000 T01440117 50004
 
KGFL - Glens Falls, New York, USA
Distance from station: W 63mi, 101km
Updated: 11:03pm
Overcast
Overcast
 Wind from calm
Wind: Calm
Temperature: 57°F , 14°C
Dew Point: 57°F , 14°C
Humidity: 100%
Barometer: 29.83 inHg , 1010.2 hPa
Clouds: Overcast
Visibility: 10 miles , 16 km
Cloud details: Overcast 700 ft
2018/06/24 03:03 KGFL 240303Z AUTO 00000KT 10SM OVC007 14/14 A2983 RMK AO2 CIG 004V010 T01440139
KFIT - Fitchburg, Massachusetts, USA
Distance from station: SSE 65mi, 105km
Updated: 10:52pm
Overcast
Overcast
 Wind from calm
Wind: Calm
Temperature: 55°F , 13°C
Dew Point: 55°F , 13°C
Humidity: 100%
Barometer: 29.87 inHg , 1011.5 hPa
Clouds: Overcast
Visibility: 10 miles , 16 km
Cloud details: Overcast 800 ft
2018/06/24 02:52 KFIT 240252Z AUTO 00000KT 10SM OVC008 13/13 A2987 RMK AO2 SLP114 60002 T01330133 50003
KDAW - Rochester, New Hampshire, USA
Distance from station: E 73mi, 118km
Updated: 10:51pm
Overcast
Overcast
 Wind from NNW
Wind: NNW 3 mph , 6 km/h
Temperature: 55°F , 13°C
Dew Point: 52°F , 11°C
Humidity: 88%
Barometer: 29.85 inHg , 1010.8 hPa
Clouds: Overcast
Visibility: 10 miles , 16 km
Cloud details: Overcast 2300 ft
2018/06/24 02:51 KDAW 240251Z AUTO 33003KT 10SM OVC023 13/11 A2985 RMK AO2 SLP104 T01280111 58006
 
K1V4 - St. Johnsbury, Vermont, USA
Distance from station: NNE 74mi, 119km
Updated: 10:54pm

 
Temperature: 55°F , 13°C
Dew Point: 54°F , 12°C
Humidity: 94%
Barometer: 29.83 inHg , 1010.2 hPa
2018/06/24 02:54 K1V4 240254Z AUTO 13/12 A2983 RMK AO1 SLP096 T01330122 56002
KLWM - Lawrence, Massachusetts, USA
Distance from station: SE 77mi, 124km
Updated: 10:54pm
Overcast
Overcast
 Wind from N
Wind: N 3 mph , 6 km/h
Temperature: 59°F , 15°C
Dew Point: 52°F , 11°C
Humidity: 77%
Barometer: 29.87 inHg , 1011.5 hPa
Clouds: Overcast
Visibility: 10 miles , 16 km
Cloud details: Overcast 1000 ft
2018/06/24 02:54 KLWM 240254Z AUTO 35003KT 10SM OVC010 15/11 A2987 RMK AO2 CIG 008V012 SLP114 60000 T01500111 58003

free counter page views since 4/29/2009